Crestview, Kentucky
Current Conditions -  °F | °C
As of 11:53 PM on Monday 22 Dec 2014 (Local Time) from KLUK Reporting Station
Moderate Rain Moderate Rain  
Wind Chill: 42°   Ceiling: 5500
Heat Index: 42°   Visibility: 5mi
Dew Point: 42°   Wind: 0mph
Humidity: 100%   Direction: NA
Pressure: 29.75"   Gusts: NA
Location:  39.0173°N, 84.4405°W
Report Text: KLUK 230453Z AUTO 00000KT 5SM RA BR SCT031 BKN055 OVC070 06/06 A2975 RMK AO2 RAB0354 SLP076 P0012 T00560056 401111067
Loading
Personal Weather Stations






























Interactive Weather Map New forecast layout! Learn more

10-Day Weather Forecast

Advertisements
Track Severe Weather on mobile